Time;durP1;ratioP1;P1;durP2;ratioP2;P2;SDS_P1;SDS_P2;PMS_P1;PMS_P2;Temp;Humidity;BMP_temperature;BMP_pressure;BME280_temperature;BME280_humidity;BME280_pressure;Samples;Min_cycle;Max_cycle;Signal;HPM_P1;HPM_P2
2021/10/29 00:02:19;;;;;;;28.67;20.55;;;;;;;;;;5011871;28;20052;-70
2021/10/29 00:04:46;;;;;;;31.08;21.48;;;;;;;;;;5009904;28;20092;-70
2021/10/29 00:07:12;;;;;;;36.53;21.05;;;;;;;;;;5024569;28;20358;-70
2021/10/29 00:09:38;;;;;;;28.67;20.88;;;;;;;;;;5014688;28;20045;-69
2021/10/29 00:12:05;;;;;;;27.20;20.15;;;;;;;;;;5007738;28;20050;-70
2021/10/29 00:14:32;;;;;;;29.17;21.85;;;;;;;;;;5008107;28;20049;-70
2021/10/29 00:16:59;;;;;;;32.67;20.58;;;;;;;;;;5011937;28;20128;-70
2021/10/29 00:19:25;;;;;;;30.38;20.08;;;;;;;;;;5009605;28;20172;-70
2021/10/29 00:21:51;;;;;;;32.20;21.15;;;;;;;;;;5006361;28;20041;-70
2021/10/29 00:24:18;;;;;;;29.08;20.02;;;;;;;;;;5011435;28;20057;-70
2021/10/29 00:26:44;;;;;;;30.08;20.52;;;;;;;;;;5013196;28;20107;-70
2021/10/29 00:29:11;;;;;;;32.20;20.45;;;;;;;;;;5010595;28;20056;-70
2021/10/29 00:31:37;;;;;;;31.20;20.58;;;;;;;;;;5011237;28;20056;-70
2021/10/29 00:34:03;;;;;;;28.58;20.52;;;;;;;;;;5011338;28;20049;-69
2021/10/29 00:36:29;;;;;;;32.83;21.33;;;;;;;;;;5018910;28;20046;-70
2021/10/29 00:38:55;;;;;;;31.35;21.73;;;;;;;;;;5010494;28;20121;-70
2021/10/29 00:41:21;;;;;;;30.27;21.52;;;;;;;;;;5009005;28;20061;-70
2021/10/29 00:43:47;;;;;;;35.08;20.83;;;;;;;;;;5023420;28;20072;-69
2021/10/29 00:46:14;;;;;;;30.98;21.33;;;;;;;;;;5010859;28;20046;-69
2021/10/29 00:48:40;;;;;;;32.38;20.85;;;;;;;;;;5028495;28;20111;-70
2021/10/29 00:51:06;;;;;;;31.55;21.48;;;;;;;;;;5011133;28;20144;-70
2021/10/29 00:53:33;;;;;;;32.20;21.50;;;;;;;;;;5030480;28;20034;-69
2021/10/29 00:55:59;;;;;;;33.10;21.73;;;;;;;;;;5009425;28;20142;-70
2021/10/29 00:58:26;;;;;;;33.35;20.92;;;;;;;;;;5011490;28;20042;-70
2021/10/29 01:00:53;;;;;;;29.55;21.00;;;;;;;;;;5008171;28;20057;-70
2021/10/29 01:03:19;;;;;;;30.15;20.98;;;;;;;;;;5017457;28;20060;-70
2021/10/29 01:05:46;;;;;;;29.88;20.35;;;;;;;;;;5013375;28;20050;-70
2021/10/29 01:08:13;;;;;;;30.48;21.30;;;;;;;;;;5012411;28;20046;-70
2021/10/29 01:10:39;;;;;;;30.92;20.35;;;;;;;;;;5011069;28;20463;-70
2021/10/29 01:13:06;;;;;;;33.03;21.08;;;;;;;;;;5013283;28;20053;-70
2021/10/29 01:15:33;;;;;;;29.38;20.92;;;;;;;;;;5010349;28;20042;-70
2021/10/29 01:17:59;;;;;;;32.22;20.65;;;;;;;;;;5011548;28;20046;-69
2021/10/29 01:20:26;;;;;;;31.52;20.83;;;;;;;;;;5010871;28;20057;-70
2021/10/29 01:22:53;;;;;;;32.33;22.05;;;;;;;;;;5021029;28;20034;-69
2021/10/29 01:25:19;;;;;;;29.88;19.90;;;;;;;;;;5014270;28;20053;-70
2021/10/29 01:27:46;;;;;;;30.95;19.95;;;;;;;;;;5030759;28;20052;-69
2021/10/29 01:30:13;;;;;;;34.08;22.30;;;;;;;;;;5015236;28;20506;-69
2021/10/29 01:32:39;;;;;;;33.17;21.10;;;;;;;;;;5017375;28;20045;-69
2021/10/29 01:35:07;;;;;;;34.22;21.38;;;;;;;;;;5012161;28;20133;-70
2021/10/29 01:37:38;;;;;;;32.30;20.40;;;;;;;;;;5027209;28;20125;-70
2021/10/29 01:40:06;;;;;;;27.73;19.25;;;;;;;;;;5008840;28;20092;-70
2021/10/29 01:42:32;;;;;;;35.20;20.00;;;;;;;;;;5024380;28;20053;-70
2021/10/29 01:44:58;;;;;;;31.10;20.42;;;;;;;;;;5011655;28;20033;-70
2021/10/29 01:47:24;;;;;;;33.05;20.05;;;;;;;;;;5012766;28;20049;-69
2021/10/29 01:49:51;;;;;;;31.13;21.80;;;;;;;;;;5012624;28;20038;-70
2021/10/29 01:52:17;;;;;;;32.40;20.48;;;;;;;;;;5012577;28;20127;-69
2021/10/29 01:54:43;;;;;;;28.52;18.88;;;;;;;;;;5024342;28;20061;-70
2021/10/29 01:57:09;;;;;;;29.48;20.15;;;;;;;;;;5013806;28;20490;-69
2021/10/29 01:59:35;;;;;;;32.45;19.83;;;;;;;;;;5009131;28;20398;-69
2021/10/29 02:02:01;;;;;;;24.05;17.75;;;;;;;;;;5010569;28;20053;-69
2021/10/29 02:04:27;;;;;;;26.63;19.17;;;;;;;;;;5012473;28;20505;-69
2021/10/29 02:06:54;;;;;;;28.75;18.88;;;;;;;;;;5013219;28;20438;-70
2021/10/29 02:09:20;;;;;;;28.85;18.40;;;;;;;;;;5010461;28;20050;-70
2021/10/29 02:11:46;;;;;;;33.80;20.60;;;;;;;;;;5013560;28;20073;-69
2021/10/29 02:14:13;;;;;;;34.17;20.92;;;;;;;;;;5011669;28;20080;-70
2021/10/29 02:16:40;;;;;;;29.60;19.45;;;;;;;;;;5012878;28;20497;-69
2021/10/29 02:19:06;;;;;;;30.05;19.25;;;;;;;;;;5013353;28;20390;-70
2021/10/29 02:21:33;;;;;;;29.85;20.17;;;;;;;;;;5024024;28;20091;-70
2021/10/29 02:23:59;;;;;;;31.45;19.80;;;;;;;;;;5010425;28;20136;-69
2021/10/29 02:26:28;;;;;;;30.13;20.38;;;;;;;;;;5011924;28;20045;-69
2021/10/29 02:28:54;;;;;;;32.90;20.85;;;;;;;;;;5009887;28;20143;-70
2021/10/29 02:31:20;;;;;;;33.50;20.92;;;;;;;;;;5011416;28;20065;-69
2021/10/29 02:33:46;;;;;;;33.40;20.45;;;;;;;;;;5011764;28;20117;-70
2021/10/29 02:36:13;;;;;;;32.90;19.67;;;;;;;;;;5026012;28;20143;-70
2021/10/29 02:38:39;;;;;;;31.45;20.10;;;;;;;;;;4994921;28;20085;-69
2021/10/29 02:41:05;;;;;;;28.92;19.52;;;;;;;;;;5023730;28;20037;-70
2021/10/29 02:43:31;;;;;;;28.88;18.17;;;;;;;;;;5022304;28;20523;-70
2021/10/29 02:45:58;;;;;;;30.13;21.00;;;;;;;;;;5010222;28;20477;-70
2021/10/29 02:48:24;;;;;;;28.52;18.95;;;;;;;;;;5007937;28;20108;-70
2021/10/29 02:50:50;;;;;;;28.27;18.30;;;;;;;;;;5012564;28;20100;-69
2021/10/29 02:53:16;;;;;;;27.70;18.38;;;;;;;;;;5011522;28;20042;-70
2021/10/29 02:55:43;;;;;;;27.92;19.55;;;;;;;;;;5026760;28;20149;-69
2021/10/29 02:58:10;;;;;;;30.55;20.85;;;;;;;;;;5011723;28;20054;-70
2021/10/29 03:00:36;;;;;;;35.15;21.27;;;;;;;;;;5025000;28;20033;-69
2021/10/29 03:03:02;;;;;;;29.08;19.40;;;;;;;;;;5009625;28;20046;-69
2021/10/29 03:05:29;;;;;;;29.75;18.70;;;;;;;;;;5012585;28;20030;-70
2021/10/29 03:07:55;;;;;;;28.30;18.70;;;;;;;;;;5011088;28;20498;-70
2021/10/29 03:10:22;;;;;;;25.80;18.85;;;;;;;;;;5009190;28;20536;-70
2021/10/29 03:12:48;;;;;;;31.00;19.25;;;;;;;;;;5010653;28;20045;-70
2021/10/29 03:15:14;;;;;;;27.75;18.15;;;;;;;;;;5026080;28;20052;-69
2021/10/29 03:17:40;;;;;;;28.67;18.73;;;;;;;;;;5010622;28;20035;-70
2021/10/29 03:20:08;;;;;;;32.85;19.15;;;;;;;;;;5026366;28;20046;-70
2021/10/29 03:22:34;;;;;;;28.20;18.27;;;;;;;;;;5008088;28;20046;-70
2021/10/29 03:25:00;;;;;;;28.52;17.83;;;;;;;;;;5009067;28;20046;-69
2021/10/29 03:27:27;;;;;;;29.60;19.25;;;;;;;;;;5008643;28;20059;-70
2021/10/29 03:29:53;;;;;;;25.90;19.58;;;;;;;;;;5011610;28;20048;-69
2021/10/29 03:32:21;;;;;;;31.15;19.02;;;;;;;;;;5011294;28;20053;-69
2021/10/29 03:34:48;;;;;;;30.65;19.40;;;;;;;;;;5012171;28;20120;-69
2021/10/29 03:37:30;;;;;;;31.83;20.30;;;;;;;;;;5008375;28;20053;-70
2021/10/29 03:40:12;;;;;;;36.13;19.98;;;;;;;;;;5024683;28;20050;-70
2021/10/29 03:42:46;;;;;;;30.10;19.13;;;;;;;;;;5008284;28;20060;-70
2021/10/29 03:45:14;;;;;;;29.92;18.83;;;;;;;;;;5009693;28;20561;-70
2021/10/29 03:47:49;;;;;;;33.00;19.42;;;;;;;;;;5008220;28;20540;-70
2021/10/29 03:50:21;;;;;;;30.00;19.20;;;;;;;;;;5009045;28;20058;-70
2021/10/29 03:52:52;;;;;;;29.50;20.73;;;;;;;;;;4993730;28;20049;-70
2021/10/29 03:55:18;;;;;;;30.60;19.10;;;;;;;;;;5009652;28;20050;-70
2021/10/29 03:57:44;;;;;;;29.60;19.48;;;;;;;;;;5010439;28;20452;-70
2021/10/29 04:00:11;;;;;;;30.00;21.10;;;;;;;;;;5008609;28;20054;-70
2021/10/29 04:02:37;;;;;;;30.98;19.65;;;;;;;;;;5010810;28;20081;-70
2021/10/29 04:05:03;;;;;;;32.28;21.17;;;;;;;;;;5010433;28;20529;-70
2021/10/29 04:07:29;;;;;;;29.25;20.60;;;;;;;;;;5021243;28;20112;-70
2021/10/29 04:09:55;;;;;;;30.08;19.60;;;;;;;;;;5009615;28;20125;-69
2021/10/29 04:12:22;;;;;;;31.08;19.23;;;;;;;;;;5009466;28;20050;-70
2021/10/29 04:14:49;;;;;;;28.58;19.35;;;;;;;;;;5010791;28;20452;-70
2021/10/29 04:17:16;;;;;;;33.05;20.58;;;;;;;;;;5007746;28;20057;-70
2021/10/29 04:19:42;;;;;;;30.20;19.50;;;;;;;;;;5008098;28;20486;-69
2021/10/29 04:22:08;;;;;;;29.15;18.77;;;;;;;;;;5006715;28;20061;-69
2021/10/29 04:24:34;;;;;;;32.10;19.30;;;;;;;;;;5005269;28;20050;-70
2021/10/29 04:27:01;;;;;;;32.45;19.90;;;;;;;;;;5006575;28;20060;-69
2021/10/29 04:29:35;;;;;;;31.65;19.27;;;;;;;;;;5010183;28;20482;-70
2021/10/29 04:32:02;;;;;;;34.60;18.27;;;;;;;;;;5010959;28;20053;-69
2021/10/29 04:34:28;;;;;;;27.05;18.58;;;;;;;;;;5010020;28;20046;-69
2021/10/29 04:36:57;;;;;;;28.73;18.30;;;;;;;;;;5009537;28;20583;-70
2021/10/29 04:39:23;;;;;;;29.30;19.13;;;;;;;;;;5006393;28;20041;-69
2021/10/29 04:41:50;;;;;;;26.50;18.20;;;;;;;;;;5002513;28;20049;-70
2021/10/29 04:44:17;;;;;;;25.17;17.85;;;;;;;;;;5009349;28;20335;-70
2021/10/29 04:46:43;;;;;;;28.35;18.05;;;;;;;;;;5009570;28;20041;-69
2021/10/29 04:49:10;;;;;;;29.92;18.02;;;;;;;;;;5009351;28;20049;-69
2021/10/29 04:51:36;;;;;;;29.60;18.60;;;;;;;;;;5024407;28;20041;-70
2021/10/29 04:54:03;;;;;;;31.10;18.35;;;;;;;;;;5023328;28;20061;-69
2021/10/29 04:56:29;;;;;;;32.58;18.05;;;;;;;;;;5006945;28;20457;-69
2021/10/29 04:58:56;;;;;;;27.70;17.63;;;;;;;;;;5006588;28;20494;-69
2021/10/29 05:01:22;;;;;;;27.17;17.77;;;;;;;;;;5005946;28;20058;-69
2021/10/29 05:03:49;;;;;;;27.35;16.45;;;;;;;;;;5010033;28;20038;-69
2021/10/29 05:06:15;;;;;;;27.35;16.70;;;;;;;;;;5028181;28;20389;-69
2021/10/29 05:08:41;;;;;;;28.95;17.17;;;;;;;;;;5036869;28;20111;-69
2021/10/29 05:11:08;;;;;;;26.30;16.73;;;;;;;;;;5014496;28;20054;-69
2021/10/29 05:13:34;;;;;;;24.88;17.63;;;;;;;;;;5032402;28;20064;-69
2021/10/29 05:16:00;;;;;;;30.95;17.65;;;;;;;;;;5020292;28;20128;-70
2021/10/29 05:18:27;;;;;;;25.67;17.00;;;;;;;;;;5016038;28;20038;-69
2021/10/29 05:20:53;;;;;;;25.42;16.55;;;;;;;;;;5020528;28;20117;-69
2021/10/29 05:23:19;;;;;;;26.30;17.52;;;;;;;;;;5020753;28;20045;-69
2021/10/29 05:25:45;;;;;;;27.90;17.73;;;;;;;;;;5016610;28;20125;-69
2021/10/29 05:28:12;;;;;;;24.30;17.20;;;;;;;;;;5016718;28;20091;-70
2021/10/29 05:30:38;;;;;;;30.92;18.45;;;;;;;;;;5016716;28;20060;-71
2021/10/29 05:33:04;;;;;;;27.55;17.40;;;;;;;;;;5008863;28;20055;-69
2021/10/29 05:35:31;;;;;;;27.52;17.50;;;;;;;;;;5010810;28;20038;-69
2021/10/29 05:37:58;;;;;;;27.83;17.77;;;;;;;;;;5004089;28;20176;-69
2021/10/29 05:40:24;;;;;;;27.85;17.67;;;;;;;;;;5007017;28;20440;-69
2021/10/29 05:42:50;;;;;;;24.88;17.52;;;;;;;;;;5001751;28;20116;-69
2021/10/29 05:45:16;;;;;;;24.15;16.38;;;;;;;;;;5005119;28;20395;-69
2021/10/29 05:47:42;;;;;;;27.25;17.10;;;;;;;;;;5005645;28;20080;-69
2021/10/29 05:50:10;;;;;;;35.08;19.25;;;;;;;;;;5007870;28;20049;-69
2021/10/29 05:52:39;;;;;;;26.10;15.70;;;;;;;;;;4997708;28;20058;-69
2021/10/29 05:57:38;;;;;;;22.20;15.57;;;;;;;;;;5030043;28;20089;-69
2021/10/29 06:00:05;;;;;;;24.23;16.48;;;;;;;;;;4997696;28;20429;-69
2021/10/29 06:02:31;;;;;;;25.48;17.38;;;;;;;;;;5008853;28;20497;-68
2021/10/29 06:04:57;;;;;;;25.40;16.40;;;;;;;;;;5009565;28;20121;-68
2021/10/29 06:07:23;;;;;;;24.10;16.17;;;;;;;;;;5010530;28;20045;-68
2021/10/29 06:09:50;;;;;;;23.55;16.35;;;;;;;;;;5008995;28;20072;-69
2021/10/29 06:12:16;;;;;;;25.63;16.65;;;;;;;;;;5011656;28;20050;-69
2021/10/29 06:14:42;;;;;;;21.75;15.63;;;;;;;;;;5012414;28;20056;-68
2021/10/29 06:17:13;;;;;;;25.38;16.05;;;;;;;;;;5013935;28;20533;-68
2021/10/29 06:19:39;;;;;;;20.65;14.35;;;;;;;;;;5012795;28;20721;-69
2021/10/29 06:24:33;;;;;;;23.15;15.80;;;;;;;;;;5028678;28;20052;-68
2021/10/29 06:27:11;;;;;;;27.17;17.45;;;;;;;;;;5013071;28;20041;-68
2021/10/29 06:29:37;;;;;;;23.20;15.85;;;;;;;;;;5011924;28;20057;-68
2021/10/29 06:32:05;;;;;;;27.40;17.38;;;;;;;;;;5028280;28;20046;-69
2021/10/29 06:34:34;;;;;;;22.05;15.50;;;;;;;;;;5012358;28;20057;-69
2021/10/29 06:37:01;;;;;;;24.30;15.32;;;;;;;;;;5011818;28;20134;-67
2021/10/29 06:39:27;;;;;;;22.52;15.98;;;;;;;;;;5026993;28;20096;-68
2021/10/29 06:41:54;;;;;;;24.40;15.73;;;;;;;;;;5010648;28;20046;-68
2021/10/29 06:44:27;;;;;;;22.38;16.27;;;;;;;;;;5011750;28;20402;-67
2021/10/29 06:51:58;;;;;;;22.00;15.25;;;;;;;;;;5027305;28;20050;-67
2021/10/29 06:52:23;;;;;;;21.05;14.65;;;;;;;;;;5010890;28;20690;-67
2021/10/29 07:00:39;;;;;;;25.80;16.00;;;;;;;;;;5027239;28;20095;-67
2021/10/29 07:41:58;;;;;;;19.60;13.88;;;;;;;;;;5010678;28;20049;-68
2021/10/29 07:44:27;;;;;;;24.05;15.32;;;;;;;;;;5007626;28;20049;-67
2021/10/29 07:46:54;;;;;;;24.92;16.42;;;;;;;;;;5026987;28;20121;-67
2021/10/29 07:49:26;;;;;;;24.30;16.17;;;;;;;;;;5010506;28;20046;-67
2021/10/29 07:51:52;;;;;;;21.38;14.80;;;;;;;;;;5011285;28;20128;-67
2021/10/29 07:54:18;;;;;;;22.27;14.77;;;;;;;;;;5010589;28;20038;-68
2021/10/29 07:56:45;;;;;;;21.55;15.35;;;;;;;;;;5026295;28;20058;-67
2021/10/29 07:59:11;;;;;;;22.40;13.52;;;;;;;;;;5008774;28;20050;-67
2021/10/29 08:01:37;;;;;;;24.13;14.50;;;;;;;;;;5011852;28;20427;-67
2021/10/29 08:04:03;;;;;;;19.30;14.05;;;;;;;;;;5010852;28;20559;-66
2021/10/29 08:06:30;;;;;;;21.63;13.52;;;;;;;;;;5010539;28;20054;-67
2021/10/29 08:08:56;;;;;;;21.77;12.73;;;;;;;;;;5010264;28;20057;-67
2021/10/29 08:11:22;;;;;;;21.77;12.82;;;;;;;;;;5011601;28;20068;-67
2021/10/29 08:13:48;;;;;;;21.77;14.18;;;;;;;;;;5009637;28;20030;-67
2021/10/29 08:16:14;;;;;;;19.70;12.63;;;;;;;;;;5011463;28;20064;-67
2021/10/29 08:18:44;;;;;;;17.02;12.60;;;;;;;;;;5009597;28;20045;-67
2021/10/29 08:21:11;;;;;;;19.48;13.25;;;;;;;;;;5026521;28;20350;-67
2021/10/29 08:23:38;;;;;;;21.52;13.38;;;;;;;;;;5011482;28;20405;-66
2021/10/29 08:26:04;;;;;;;17.05;12.13;;;;;;;;;;5009456;28;20037;-67
2021/10/29 08:28:30;;;;;;;16.52;11.45;;;;;;;;;;5011287;28;20160;-67
2021/10/29 08:30:57;;;;;;;17.13;11.23;;;;;;;;;;5009861;28;20049;-67
2021/10/29 08:33:24;;;;;;;15.45;11.50;;;;;;;;;;5010087;28;20406;-67
2021/10/29 08:35:51;;;;;;;18.80;10.63;;;;;;;;;;5010055;28;20056;-67
2021/10/29 08:38:18;;;;;;;18.50;11.35;;;;;;;;;;5011288;28;20267;-67
2021/10/29 08:40:44;;;;;;;19.15;11.35;;;;;;;;;;5010498;28;20445;-68
2021/10/29 08:43:11;;;;;;;16.80;10.93;;;;;;;;;;5009591;28;20088;-68
2021/10/29 08:45:37;;;;;;;17.00;10.73;;;;;;;;;;5026238;28;20046;-68
2021/10/29 08:48:05;;;;;;;16.40;11.38;;;;;;;;;;4992877;28;20046;-67
2021/10/29 08:50:31;;;;;;;14.57;10.45;;;;;;;;;;5010878;28;20056;-68
2021/10/29 08:52:58;;;;;;;14.40;10.05;;;;;;;;;;5009573;28;20165;-68
2021/10/29 08:55:25;;;;;;;16.63;10.80;;;;;;;;;;5010006;28;20053;-68
2021/10/29 08:57:52;;;;;;;17.02;10.35;;;;;;;;;;5006141;28;20481;-68
2021/10/29 09:00:23;;;;;;;17.20;10.63;;;;;;;;;;5026135;28;20065;-68
2021/10/29 09:02:59;;;;;;;14.50;10.90;;;;;;;;;;5010358;28;20124;-68
2021/10/29 09:05:32;;;;;;;17.27;11.15;;;;;;;;;;5010975;28;20069;-68
2021/10/29 09:08:10;;;;;;;15.65;10.55;;;;;;;;;;5010210;28;20046;-68
2021/10/29 09:16:31;;;;;;;14.70;9.70;;;;;;;;;;5009692;28;20050;-68
2021/10/29 09:32:39;;;;;;;16.80;9.65;;;;;;;;;;5024362;28;20053;-68
2021/10/29 09:35:13;;;;;;;12.48;8.52;;;;;;;;;;5010773;28;20057;-68
2021/10/29 09:37:57;;;;;;;15.63;9.30;;;;;;;;;;5009652;28;20041;-68
2021/10/29 09:40:23;;;;;;;15.57;8.77;;;;;;;;;;5008579;28;20097;-68
2021/10/29 09:42:52;;;;;;;14.23;9.27;;;;;;;;;;5010548;28;20046;-68
2021/10/29 09:45:21;;;;;;;17.15;9.63;;;;;;;;;;5010255;28;20104;-68
2021/10/29 09:47:56;;;;;;;13.82;8.85;;;;;;;;;;5012869;28;20046;-68
2021/10/29 09:50:25;;;;;;;15.32;8.68;;;;;;;;;;5012083;28;20053;-68
2021/10/29 09:53:09;;;;;;;14.02;8.52;;;;;;;;;;5013035;28;20060;-68
2021/10/29 09:56:07;;;;;;;13.23;8.43;;;;;;;;;;5013999;28;20442;-68
2021/10/29 09:58:22;;;;;;;12.82;8.30;;;;;;;;;;5012027;28;20434;-68
2021/10/29 10:00:50;;;;;;;13.95;8.43;;;;;;;;;;5013921;28;20084;-68
2021/10/29 10:03:18;;;;;;;14.95;8.80;;;;;;;;;;5014035;28;20042;-68
2021/10/29 10:05:45;;;;;;;14.88;9.13;;;;;;;;;;5011711;28;20045;-68
2021/10/29 10:08:11;;;;;;;13.73;8.98;;;;;;;;;;5014628;28;20409;-71
2021/10/29 10:10:39;;;;;;;13.85;8.57;;;;;;;;;;5013869;28;20072;-72
2021/10/29 10:13:05;;;;;;;13.57;9.07;;;;;;;;;;5011865;28;20111;-72
2021/10/29 10:15:32;;;;;;;14.77;9.32;;;;;;;;;;5012923;28;20121;-72
2021/10/29 10:17:58;;;;;;;13.93;8.15;;;;;;;;;;5011868;28;20567;-71
2021/10/29 10:20:25;;;;;;;14.50;8.60;;;;;;;;;;5028174;28;20046;-72
2021/10/29 10:22:51;;;;;;;12.88;8.60;;;;;;;;;;5012174;28;20519;-72
2021/10/29 10:30:46;;;;;;;12.48;7.88;;;;;;;;;;5013103;28;20379;-77
2021/10/29 10:44:18;;;;;;;13.68;8.48;;;;;;;;;;5012292;28;20050;-79
2021/10/29 10:46:48;;;;;;;;;;;;;;;;;;5011509;28;20125;-79
2021/10/29 10:49:18;;;;;;;14.80;7.95;;;;;;;;;;5013510;28;19922;-79
2021/10/29 10:51:49;;;;;;;12.80;8.68;;;;;;;;;;5014519;28;20046;-76
2021/10/29 10:54:21;;;;;;;10.75;7.22;;;;;;;;;;5021508;28;20355;-79
2021/10/29 10:56:59;;;;;;;13.75;8.57;;;;;;;;;;4994481;28;20426;-79
2021/10/29 11:02:37;;;;;;;15.25;7.40;;;;;;;;;;5028265;28;20065;-80
2021/10/29 11:05:21;;;;;;;13.18;7.47;;;;;;;;;;5012743;28;20056;-80
2021/10/29 11:10:41;;;;;;;12.27;7.20;;;;;;;;;;5011915;28;20081;-80
2021/10/29 11:13:07;;;;;;;11.85;7.60;;;;;;;;;;5010823;28;20046;-80
2021/10/29 11:15:34;;;;;;;12.43;6.82;;;;;;;;;;5009329;28;20510;-79
2021/10/29 11:18:02;;;;;;;12.02;7.35;;;;;;;;;;5010718;28;20108;-79
2021/10/29 11:20:39;;;;;;;11.77;6.90;;;;;;;;;;5004940;28;20054;-79
2021/10/29 11:23:07;;;;;;;12.20;6.55;;;;;;;;;;5001443;28;20061;-80
2021/10/29 11:25:48;;;;;;;12.95;7.03;;;;;;;;;;5005926;28;20064;-81
2021/10/29 11:28:16;;;;;;;18.40;7.05;;;;;;;;;;5005806;28;20220;-75
2021/10/29 11:30:43;;;;;;;10.27;6.68;;;;;;;;;;5020464;28;20069;-79
2021/10/29 11:33:10;;;;;;;12.05;5.90;;;;;;;;;;5018073;28;20107;-79
2021/10/29 11:35:36;;;;;;;10.82;6.78;;;;;;;;;;5016982;28;20047;-79
2021/10/29 11:38:05;;;;;;;11.50;6.45;;;;;;;;;;4995763;28;20045;-79
2021/10/29 11:40:32;;;;;;;13.77;6.95;;;;;;;;;;5016264;28;20045;-79
2021/10/29 11:42:58;;;;;;;13.93;7.25;;;;;;;;;;5016267;28;20041;-79
2021/10/29 11:45:29;;;;;;;17.58;8.05;;;;;;;;;;5017973;28;20076;-79
2021/10/29 11:47:57;;;;;;;10.38;6.32;;;;;;;;;;5018342;28;20057;-79
2021/10/29 11:50:24;;;;;;;9.75;6.45;;;;;;;;;;5017542;28;20107;-79
2021/10/29 11:52:50;;;;;;;11.25;6.82;;;;;;;;;;5020386;28;20072;-79
2021/10/29 11:55:21;;;;;;;15.13;6.18;;;;;;;;;;5017702;28;20498;-80
2021/10/29 11:57:54;;;;;;;13.50;7.30;;;;;;;;;;5019616;28;20053;-77
2021/10/29 12:00:29;;;;;;;12.95;6.95;;;;;;;;;;5017378;28;20042;-76
2021/10/29 12:06:15;;;;;;;9.52;6.25;;;;;;;;;;5041297;28;20490;-77
2021/10/29 12:08:41;;;;;;;9.10;6.25;;;;;;;;;;5018044;28;20068;-77
2021/10/29 12:11:08;;;;;;;14.10;8.30;;;;;;;;;;5014540;28;20073;-77
2021/10/29 12:13:36;;;;;;;11.10;7.03;;;;;;;;;;4995931;28;20551;-77
2021/10/29 12:16:13;;;;;;;10.38;6.07;;;;;;;;;;5015533;28;20120;-77
2021/10/29 12:18:44;;;;;;;9.77;6.18;;;;;;;;;;5015002;28;20045;-77
2021/10/29 12:21:19;;;;;;;13.93;7.07;;;;;;;;;;5001894;28;20461;-77
2021/10/29 12:23:49;;;;;;;11.05;6.68;;;;;;;;;;5029114;28;20049;-76
2021/10/29 12:26:21;;;;;;;11.73;6.15;;;;;;;;;;5012951;28;20042;-76
2021/10/29 12:28:52;;;;;;;10.90;6.63;;;;;;;;;;4998219;28;20111;-77
2021/10/29 12:31:34;;;;;;;11.88;5.97;;;;;;;;;;5017051;28;20111;-80
2021/10/29 12:34:28;;;;;;;11.98;6.30;;;;;;;;;;5013840;28;20045;-77
2021/10/29 12:37:41;;;;;;;11.18;5.65;;;;;;;;;;5016030;28;20053;-77
2021/10/29 12:54:30;;;;;;;9.55;5.57;;;;;;;;;;5026961;28;19925;-77
2021/10/29 13:02:33;;;;;;;10.82;5.78;;;;;;;;;;5009599;28;20050;-77
2021/10/29 13:05:00;;;;;;;9.75;5.65;;;;;;;;;;5011257;28;20144;-77
2021/10/29 13:07:28;;;;;;;11.43;6.10;;;;;;;;;;4996816;28;20068;-77
2021/10/29 13:10:05;;;;;;;9.95;5.57;;;;;;;;;;5031820;28;20049;-77
2021/10/29 13:12:41;;;;;;;10.35;6.43;;;;;;;;;;5033482;28;20046;-77
2021/10/29 13:15:11;;;;;;;11.43;5.90;;;;;;;;;;5027340;28;20049;-77
2021/10/29 13:17:44;;;;;;;11.88;5.35;;;;;;;;;;5018892;28;20498;-77
2021/10/29 13:20:39;;;;;;;9.73;5.60;;;;;;;;;;5020156;28;20121;-77
2021/10/29 13:28:44;;;;;;;10.45;5.22;;;;;;;;;;5020995;28;20204;-77
2021/10/29 13:34:24;;;;;;;8.52;4.95;;;;;;;;;;5045188;28;20062;-77
2021/10/29 13:36:59;;;;;;;9.35;5.38;;;;;;;;;;5022654;28;20057;-79
2021/10/29 13:50:46;;;;;;;11.55;5.93;;;;;;;;;;5017768;28;20410;-77
2021/10/29 13:53:29;;;;;;;8.98;5.68;;;;;;;;;;5012830;28;20184;-77
2021/10/29 13:56:09;;;;;;;13.35;5.82;;;;;;;;;;5013870;28;20056;-77
2021/10/29 13:59:32;;;;;;;9.60;5.70;;;;;;;;;;5017323;28;20085;-78
2021/10/29 14:01:55;;;;;;;10.85;5.93;;;;;;;;;;5033933;28;20057;-77
2021/10/29 14:29:17;;;;;;;10.43;5.47;;;;;;;;;;5024205;28;20145;-77
2021/10/29 14:31:56;;;;;;;12.38;5.65;;;;;;;;;;5019367;28;20045;-77
2021/10/29 14:34:27;;;;;;;9.43;5.55;;;;;;;;;;5020403;28;20034;-77
2021/10/29 14:42:00;;;;;;;10.32;5.57;;;;;;;;;;5016158;28;20046;-77
2021/10/29 14:44:36;;;;;;;10.20;4.75;;;;;;;;;;5013447;28;20058;-77
2021/10/29 14:47:14;;;;;;;9.13;5.30;;;;;;;;;;5011312;28;20121;-77
2021/10/29 15:27:28;;;;;;;9.70;4.78;;;;;;;;;;5048628;28;20068;-79
2021/10/29 15:32:52;;;;;;;11.80;5.53;;;;;;;;;;5050598;28;20053;-79
2021/10/29 15:45:45;;;;;;;10.18;4.93;;;;;;;;;;5073551;28;20075;-79
2021/10/29 15:48:18;;;;;;;11.18;5.13;;;;;;;;;;5061694;28;20056;-79
2021/10/29 15:50:44;;;;;;;18.25;5.20;;;;;;;;;;5065587;28;20043;-79
2021/10/29 15:53:12;;;;;;;11.45;5.63;;;;;;;;;;5056139;28;20083;-79
2021/10/29 15:55:44;;;;;;;8.93;4.93;;;;;;;;;;5052201;28;20033;-82
2021/10/29 15:58:19;;;;;;;10.70;5.53;;;;;;;;;;5070202;28;20350;-79
2021/10/29 16:00:55;;;;;;;12.63;5.13;;;;;;;;;;5047822;28;20054;-79
2021/10/29 16:03:31;;;;;;;12.02;4.60;;;;;;;;;;5074040;28;20060;-79
2021/10/29 16:17:07;;;;;;;8.82;5.00;;;;;;;;;;5041810;28;20060;-80
2021/10/29 16:19:34;;;;;;;9.48;4.93;;;;;;;;;;5070644;28;20106;-78
2021/10/29 16:22:04;;;;;;;10.40;4.80;;;;;;;;;;5044128;28;20052;-84
2021/10/29 16:24:31;;;;;;;12.32;5.53;;;;;;;;;;5070066;28;20091;-77
2021/10/29 16:26:58;;;;;;;11.00;4.53;;;;;;;;;;5048507;28;20044;-77
2021/10/29 16:29:25;;;;;;;9.13;4.97;;;;;;;;;;5056957;28;20131;-77
2021/10/29 16:31:54;;;;;;;16.67;4.80;;;;;;;;;;5055491;28;20057;-77
2021/10/29 16:34:21;;;;;;;9.27;5.20;;;;;;;;;;5046094;28;20056;-78
2021/10/29 16:36:47;;;;;;;13.88;5.95;;;;;;;;;;5052984;28;20053;-78
2021/10/29 16:39:13;;;;;;;16.30;5.25;;;;;;;;;;5049086;28;20111;-80
2021/10/29 16:41:40;;;;;;;8.90;5.10;;;;;;;;;;5076791;28;20037;-80
2021/10/29 16:44:06;;;;;;;10.13;4.75;;;;;;;;;;5038503;28;20732;-80
2021/10/29 16:46:32;;;;;;;8.90;5.78;;;;;;;;;;5042174;28;21864;-82
2021/10/29 16:49:00;;;;;;;10.80;6.53;;;;;;;;;;5047153;28;20059;-81
2021/10/29 16:51:26;;;;;;;12.40;5.43;;;;;;;;;;5048594;28;20534;-82
2021/10/29 16:53:52;;;;;;;10.93;5.40;;;;;;;;;;5048556;28;20037;-81
2021/10/29 16:56:19;;;;;;;8.80;5.13;;;;;;;;;;5060925;28;20178;-81
2021/10/29 16:58:46;;;;;;;11.70;4.93;;;;;;;;;;5056700;28;20438;-81
2021/10/29 17:01:12;;;;;;;7.88;4.95;;;;;;;;;;5048050;28;20132;-80
2021/10/29 17:03:38;;;;;;;13.60;6.15;;;;;;;;;;5058258;28;20045;-81
2021/10/29 17:06:05;;;;;;;9.40;4.97;;;;;;;;;;5050152;28;20068;-81
2021/10/29 17:08:31;;;;;;;11.80;5.78;;;;;;;;;;5054806;28;20049;-80
2021/10/29 17:10:58;;;;;;;11.07;5.45;;;;;;;;;;5052176;28;20048;-78
2021/10/29 17:13:24;;;;;;;13.48;5.25;;;;;;;;;;5048644;28;20037;-81
2021/10/29 17:15:50;;;;;;;9.15;5.25;;;;;;;;;;5038727;28;20369;-81
2021/10/29 17:18:16;;;;;;;12.05;5.05;;;;;;;;;;5054291;28;20056;-81
2021/10/29 17:20:42;;;;;;;11.68;5.35;;;;;;;;;;5048261;28;20079;-81
2021/10/29 17:23:09;;;;;;;10.57;5.18;;;;;;;;;;5049891;28;20095;-80
2021/10/29 17:25:35;;;;;;;12.43;5.80;;;;;;;;;;5042308;28;20045;-80
2021/10/29 17:28:01;;;;;;;9.13;5.72;;;;;;;;;;5049246;28;20047;-80
2021/10/29 17:30:27;;;;;;;15.20;5.22;;;;;;;;;;5039764;28;20092;-80
2021/10/29 17:32:54;;;;;;;9.90;5.47;;;;;;;;;;5042633;28;20045;-80
2021/10/29 17:35:20;;;;;;;8.07;4.88;;;;;;;;;;5039985;28;20488;-81
2021/10/29 17:37:47;;;;;;;13.50;5.35;;;;;;;;;;5041107;28;20040;-81
2021/10/29 17:40:14;;;;;;;15.27;5.45;;;;;;;;;;5043642;28;20052;-78
2021/10/29 17:42:41;;;;;;;9.25;6.13;;;;;;;;;;5044640;28;20132;-80
2021/10/29 17:45:08;;;;;;;10.05;5.28;;;;;;;;;;5044441;28;20095;-79
2021/10/29 17:47:35;;;;;;;11.68;6.07;;;;;;;;;;5047211;28;20048;-79
2021/10/29 17:50:01;;;;;;;10.73;5.93;;;;;;;;;;5041897;28;20049;-79
2021/10/29 17:52:27;;;;;;;10.43;5.95;;;;;;;;;;5046241;28;20068;-79
2021/10/29 17:54:55;;;;;;;9.80;5.90;;;;;;;;;;5037793;28;20037;-78
2021/10/29 17:57:24;;;;;;;14.50;6.65;;;;;;;;;;5038821;28;20041;-80
2021/10/29 17:59:51;;;;;;;10.27;6.40;;;;;;;;;;5041005;28;20480;-80
2021/10/29 18:02:24;;;;;;;11.32;5.78;;;;;;;;;;5041500;28;20064;-77
2021/10/29 18:04:51;;;;;;;9.93;5.97;;;;;;;;;;5044851;28;20197;-78
2021/10/29 18:07:19;;;;;;;14.00;6.10;;;;;;;;;;5045609;28;20048;-77
2021/10/29 18:09:46;;;;;;;13.52;6.60;;;;;;;;;;5044223;28;20223;-77
2021/10/29 18:12:12;;;;;;;13.70;6.28;;;;;;;;;;5046852;28;20080;-77
2021/10/29 18:14:41;;;;;;;10.70;5.88;;;;;;;;;;5047526;28;20453;-77
2021/10/29 18:17:08;;;;;;;11.60;6.10;;;;;;;;;;5062215;28;20191;-77
2021/10/29 18:19:35;;;;;;;15.80;6.30;;;;;;;;;;5047528;28;20095;-77
2021/10/29 18:22:02;;;;;;;11.45;6.35;;;;;;;;;;5062938;28;20044;-77